Aviation Digital Data Service (ADDS)

Output produced by METARs form (1351 UTC 26 May 2018)
found at http://www.aviationweather.gov/adds/metars/
 
GFLL 261300Z 30010KT 9999 SCT014 27/21 Q1012
TAF GFLL 261000Z 2612/2718 30010KT 9999 BKN013 FEW027CB 
     TEMPO 2618/2622 27008KT TS BKN012 
     PROB30 
     BECMG 2708/2710 30006KT 9999 BKN012 
     TEMPO 2712/2717 27010KT 9999 BKN013 FEW027CB